Time;durP1;ratioP1;P1;durP2;ratioP2;P2;SDS_P1;SDS_P2;PMS_P1;PMS_P2;Temp;Humidity;BMP_temperature;BMP_pressure;BME280_temperature;BME280_humidity;BME280_pressure;Samples;Min_cycle;Max_cycle;Signal;HPM_P1;HPM_P2
2022/01/16 00:04:55;;;;;;;61.77;29.23;;;1.10;99.90;;;;;;5043931;28;20211;-66
2022/01/16 00:07:24;;;;;;;59.20;27.70;;;1.10;99.90;;;;;;5043708;28;20216;-66
2022/01/16 00:09:52;;;;;;;66.07;28.47;;;1.20;99.90;;;;;;5047050;28;20292;-66
2022/01/16 00:12:23;;;;;;;62.60;29.60;;;1.30;99.90;;;;;;5048998;28;20235;-66
2022/01/16 00:14:52;;;;;;;62.83;29.17;;;1.30;99.90;;;;;;5029075;28;20239;-66
2022/01/16 00:17:22;;;;;;;59.13;28.93;;;1.30;99.90;;;;;;5045153;28;20663;-66
2022/01/16 00:19:51;;;;;;;56.70;28.03;;;1.40;99.90;;;;;;5047215;28;20193;-66
2022/01/16 00:22:25;;;;;;;61.07;27.97;;;1.40;99.90;;;;;;5044268;28;20221;-66
2022/01/16 00:24:53;;;;;;;61.10;27.80;;;1.50;99.90;;;;;;5042517;28;20626;-66
2022/01/16 00:27:22;;;;;;;57.13;28.23;;;1.50;99.90;;;;;;5044747;28;20200;-66
2022/01/16 00:29:50;;;;;;;58.90;27.17;;;1.50;99.90;;;;;;5048865;28;20287;-66
2022/01/16 00:32:21;;;;;;;63.00;29.03;;;1.60;99.90;;;;;;5049348;28;20260;-66
2022/01/16 00:34:50;;;;;;;54.60;27.57;;;1.70;99.90;;;;;;5044900;28;20200;-66
2022/01/16 00:37:18;;;;;;;60.53;28.20;;;1.70;99.90;;;;;;5042935;28;20278;-66
2022/01/16 00:39:48;;;;;;;58.97;27.93;;;1.70;99.90;;;;;;5044761;28;20384;-66
2022/01/16 00:42:17;;;;;;;53.87;27.97;;;1.70;99.90;;;;;;5044980;28;20232;-66
2022/01/16 00:44:45;;;;;;;56.17;27.80;;;1.80;99.90;;;;;;5043027;28;20217;-66
2022/01/16 00:47:14;;;;;;;53.37;28.13;;;1.80;99.90;;;;;;5039848;28;20675;-66
2022/01/16 00:49:43;;;;;;;51.33;26.93;;;1.90;99.90;;;;;;5045543;28;20682;-66
2022/01/16 00:52:11;;;;;;;57.93;27.60;;;1.90;99.90;;;;;;5048388;28;20242;-66
2022/01/16 00:54:40;;;;;;;54.00;27.27;;;1.90;99.90;;;;;;5046339;28;20192;-66
2022/01/16 00:57:10;;;;;;;57.80;28.87;;;1.90;99.90;;;;;;5049053;28;20215;-66
2022/01/16 00:59:38;;;;;;;53.50;28.33;;;2.00;99.90;;;;;;5042467;28;20272;-66
2022/01/16 01:02:06;;;;;;;51.63;27.37;;;2.00;99.90;;;;;;5050397;28;20200;-66
2022/01/16 01:04:35;;;;;;;54.07;27.70;;;2.00;99.90;;;;;;5046907;28;20671;-65
2022/01/16 01:07:04;;;;;;;52.17;27.40;;;2.10;99.90;;;;;;5046036;28;20211;-66
2022/01/16 01:09:32;;;;;;;52.47;27.80;;;2.10;99.90;;;;;;5046776;28;20220;-65
2022/01/16 01:12:03;;;;;;;53.07;28.27;;;2.10;99.90;;;;;;5047663;28;20188;-65
2022/01/16 01:14:41;;;;;;;56.47;30.00;;;2.00;99.90;;;;;;5049477;28;20239;-66
2022/01/16 01:17:19;;;;;;;60.90;31.30;;;2.00;99.90;;;;;;5046656;28;20246;-66
2022/01/16 01:19:48;;;;;;;56.17;29.93;;;2.00;99.90;;;;;;5048815;28;20195;-66
2022/01/16 01:22:16;;;;;;;63.80;32.37;;;2.10;99.90;;;;;;5049871;28;20190;-66
2022/01/16 01:24:45;;;;;;;59.00;30.77;;;2.00;99.90;;;;;;5049165;28;20271;-66
2022/01/16 01:27:21;;;;;;;52.67;28.83;;;2.10;99.90;;;;;;5048139;28;20200;-66
2022/01/16 01:29:58;;;;;;;55.80;29.47;;;2.10;99.90;;;;;;5047973;28;20279;-66
2022/01/16 01:32:27;;;;;;;56.47;31.00;;;2.10;99.90;;;;;;5048695;28;20247;-66
2022/01/16 01:34:55;;;;;;;54.00;27.23;;;2.00;99.90;;;;;;5044598;28;20729;-66
2022/01/16 01:37:24;;;;;;;49.63;26.87;;;2.00;99.90;;;;;;5047703;28;20217;-66
2022/01/16 01:39:52;;;;;;;48.90;28.87;;;2.00;99.90;;;;;;5049536;28;20228;-66
2022/01/16 01:42:20;;;;;;;45.77;26.47;;;2.10;99.90;;;;;;5049587;28;20198;-66
2022/01/16 01:53:08;;;;;;;45.93;27.00;;;2.10;99.90;;;;;;5050952;28;20205;-66
2022/01/16 01:55:37;;;;;;;44.83;25.30;;;2.00;99.90;;;;;;5042943;28;20243;-66
2022/01/16 01:58:05;;;;;;;50.17;26.90;;;2.00;99.90;;;;;;5035032;28;20742;-66
2022/01/16 02:00:35;;;;;;;43.23;25.40;;;2.00;99.90;;;;;;5044432;28;20208;-66
2022/01/16 02:03:19;;;;;;;49.00;27.67;;;1.90;99.90;;;;;;5042209;28;20196;-66
2022/01/16 02:05:47;;;;;;;44.70;25.77;;;1.90;99.90;;;;;;5041591;28;20291;-66
2022/01/16 02:08:17;;;;;;;39.57;24.10;;;1.90;99.90;;;;;;5041181;28;20596;-66
2022/01/16 02:10:45;;;;;;;47.00;26.60;;;1.80;99.90;;;;;;5044121;28;20252;-66
2022/01/16 02:13:25;;;;;;;46.50;26.87;;;1.70;99.90;;;;;;5044953;28;20252;-66
2022/01/16 02:30:33;;;;;;;44.33;23.83;;;1.30;99.90;;;;;;5043519;28;20236;-66
2022/01/16 02:33:21;;;;;;;45.07;24.90;;;1.30;99.90;;;;;;5040340;28;20258;-66
2022/01/16 02:35:51;;;;;;;46.27;24.47;;;1.20;99.90;;;;;;5040711;28;20220;-66
2022/01/16 02:38:20;;;;;;;45.47;24.53;;;1.20;99.90;;;;;;5046417;28;20573;-66
2022/01/16 02:40:53;;;;;;;46.47;24.87;;;1.20;99.90;;;;;;5045679;28;20199;-66
2022/01/16 02:43:29;;;;;;;45.70;24.83;;;1.10;99.90;;;;;;5043624;28;20197;-66
2022/01/16 02:46:35;;;;;;;44.03;23.83;;;1.10;99.90;;;;;;5027191;28;20720;-66
2022/01/16 02:48:58;;;;;;;44.10;23.70;;;1.10;99.90;;;;;;5041106;28;20193;-66
2022/01/16 02:51:28;;;;;;;44.37;24.27;;;1.10;99.90;;;;;;5042688;28;20198;-65
2022/01/16 02:53:57;;;;;;;42.93;23.47;;;1.00;99.90;;;;;;5043500;28;20219;-65
2022/01/16 02:56:27;;;;;;;45.47;24.00;;;1.00;99.90;;;;;;5050374;28;20201;-66
2022/01/16 02:58:55;;;;;;;47.93;25.07;;;1.10;99.90;;;;;;5046372;28;20201;-66
2022/01/16 03:01:24;;;;;;;45.87;24.43;;;1.10;99.90;;;;;;5049693;28;20193;-66
2022/01/16 03:03:53;;;;;;;45.03;23.80;;;1.10;99.90;;;;;;5045791;28;20214;-65
2022/01/16 03:06:26;;;;;;;42.70;23.27;;;1.10;99.90;;;;;;5049656;28;20220;-66
2022/01/16 03:08:55;;;;;;;45.90;24.30;;;1.10;99.90;;;;;;5046593;28;20271;-66
2022/01/16 03:11:30;;;;;;;47.60;25.37;;;1.10;99.90;;;;;;5043279;28;20215;-66
2022/01/16 03:14:00;;;;;;;44.03;23.80;;;1.10;99.90;;;;;;5050094;28;20192;-66
2022/01/16 03:16:29;;;;;;;44.97;24.70;;;1.20;99.90;;;;;;5047912;28;20205;-66
2022/01/16 03:21:54;;;;;;;51.63;24.80;;;1.20;99.90;;;;;;5054307;28;20282;-66
2022/01/16 03:24:25;;;;;;;51.97;25.17;;;1.20;99.90;;;;;;5050338;28;20215;-66
2022/01/16 03:26:54;;;;;;;54.77;25.17;;;1.30;99.90;;;;;;5035978;28;20216;-66
2022/01/16 03:29:24;;;;;;;50.67;24.47;;;1.40;99.90;;;;;;5052027;28;20228;-66
2022/01/16 03:31:53;;;;;;;53.33;25.53;;;1.40;99.90;;;;;;5050235;28;20877;-66
2022/01/16 03:34:22;;;;;;;47.93;24.57;;;1.50;99.90;;;;;;5057232;28;20279;-66
2022/01/16 03:36:51;;;;;;;55.60;24.93;;;1.50;99.90;;;;;;5051140;28;20227;-66
2022/01/16 03:39:19;;;;;;;51.83;25.10;;;1.50;99.90;;;;;;5051286;28;20316;-66
2022/01/16 03:41:48;;;;;;;57.23;25.13;;;1.50;99.90;;;;;;5049071;28;20188;-66
2022/01/16 03:44:17;;;;;;;52.43;24.33;;;1.50;99.90;;;;;;5048478;28;20197;-66
2022/01/16 03:46:47;;;;;;;53.17;24.30;;;1.50;99.90;;;;;;5047842;28;20193;-66
2022/01/16 03:49:18;;;;;;;56.10;24.97;;;1.50;99.90;;;;;;5047233;28;20258;-66
2022/01/16 03:51:48;;;;;;;61.63;26.10;;;1.40;99.90;;;;;;5046616;28;20198;-66
2022/01/16 03:54:19;;;;;;;54.00;24.93;;;1.40;99.90;;;;;;5049074;28;20192;-66
2022/01/16 03:56:47;;;;;;;50.50;24.23;;;1.50;99.90;;;;;;5044079;28;20240;-66
2022/01/16 03:59:16;;;;;;;50.13;23.93;;;1.50;99.90;;;;;;5044812;28;20556;-66
2022/01/16 04:01:47;;;;;;;56.10;24.67;;;1.50;99.90;;;;;;5047013;28;20192;-66
2022/01/16 04:04:16;;;;;;;53.93;24.53;;;1.50;99.90;;;;;;5045159;28;20201;-66
2022/01/16 04:06:44;;;;;;;54.60;24.20;;;1.40;99.90;;;;;;5046994;28;20201;-66
2022/01/16 04:09:13;;;;;;;58.87;26.07;;;1.50;99.90;;;;;;5047444;28;20281;-66
2022/01/16 04:11:48;;;;;;;54.60;24.17;;;1.50;99.90;;;;;;5044452;28;20276;-66
2022/01/16 04:14:23;;;;;;;56.73;25.23;;;1.50;99.90;;;;;;5044897;28;20250;-66
2022/01/16 04:16:53;;;;;;;60.60;24.83;;;1.50;99.90;;;;;;5042467;28;20218;-66
2022/01/16 04:19:21;;;;;;;56.03;25.60;;;1.40;99.90;;;;;;5047325;28;20734;-66
2022/01/16 04:21:50;;;;;;;59.63;26.70;;;1.40;99.90;;;;;;5039526;28;20720;-66
2022/01/16 04:24:21;;;;;;;60.63;25.50;;;1.50;99.90;;;;;;5046339;28;20610;-66
2022/01/16 04:26:49;;;;;;;65.07;25.43;;;1.40;99.90;;;;;;5046689;28;20252;-66
2022/01/16 04:29:18;;;;;;;61.10;24.83;;;1.40;99.90;;;;;;5041570;28;20220;-66
2022/01/16 04:31:46;;;;;;;63.03;26.27;;;1.40;99.90;;;;;;5046790;28;20196;-66
2022/01/16 04:34:16;;;;;;;60.33;24.90;;;1.40;99.90;;;;;;5045412;28;20593;-66
2022/01/16 04:36:45;;;;;;;61.77;24.97;;;1.40;99.90;;;;;;5040903;28;20283;-66
2022/01/16 04:39:16;;;;;;;58.87;25.47;;;1.40;99.90;;;;;;5047680;28;20205;-66
2022/01/16 04:44:31;;;;;;;60.50;26.23;;;1.40;99.90;;;;;;5039878;28;20242;-66
2022/01/16 04:47:00;;;;;;;60.60;26.33;;;1.60;99.90;;;;;;5046176;28;20197;-66
2022/01/16 04:49:30;;;;;;;58.43;25.57;;;1.60;99.90;;;;;;5046341;28;20212;-66
2022/01/16 04:51:58;;;;;;;66.93;27.47;;;1.60;99.90;;;;;;5027260;28;20201;-66
2022/01/16 04:54:27;;;;;;;65.13;25.40;;;1.60;99.90;;;;;;5048081;28;20248;-67
2022/01/16 04:56:55;;;;;;;75.63;27.37;;;1.60;99.90;;;;;;5043736;28;20201;-66
2022/01/16 04:59:24;;;;;;;74.77;27.23;;;1.60;99.90;;;;;;5045998;28;20340;-66
2022/01/16 05:01:53;;;;;;;73.47;27.37;;;1.70;99.90;;;;;;5046051;28;20590;-66
2022/01/16 05:04:21;;;;;;;66.83;26.67;;;1.70;99.90;;;;;;5045684;28;20200;-66
2022/01/16 05:06:51;;;;;;;68.03;26.60;;;1.70;99.90;;;;;;5042173;28;20203;-66
2022/01/16 05:09:20;;;;;;;59.83;24.67;;;1.70;99.90;;;;;;5030703;28;20695;-65
2022/01/16 05:11:54;;;;;;;73.27;25.73;;;1.70;99.90;;;;;;5046807;28;20200;-66
2022/01/16 05:17:08;;;;;;;71.17;25.20;;;1.70;99.90;;;;;;5046671;28;20567;-66
2022/01/16 05:19:38;;;;;;;76.00;25.60;;;1.70;99.90;;;;;;5049774;28;20861;-65
2022/01/16 05:22:08;;;;;;;60.77;24.47;;;1.80;99.90;;;;;;5047864;28;20204;-66
2022/01/16 05:24:36;;;;;;;63.53;24.27;;;1.80;99.90;;;;;;5048242;28;20511;-66
2022/01/16 05:27:06;;;;;;;63.70;23.87;;;1.80;99.90;;;;;;5039602;28;20610;-66
2022/01/16 05:29:36;;;;;;;67.00;23.53;;;1.90;99.90;;;;;;5043434;28;20190;-66
2022/01/16 05:32:06;;;;;;;66.10;24.20;;;1.90;99.90;;;;;;5047146;28;20189;-66
2022/01/16 05:34:35;;;;;;;62.47;23.47;;;2.00;99.90;;;;;;5045320;28;20870;-66
2022/01/16 05:37:05;;;;;;;67.27;24.30;;;2.00;99.90;;;;;;5045215;28;20193;-66
2022/01/16 05:39:35;;;;;;;64.17;24.40;;;2.00;99.90;;;;;;5042030;28;20622;-66
2022/01/16 05:42:04;;;;;;;60.40;23.17;;;2.10;99.90;;;;;;5047234;28;20232;-66
2022/01/16 05:44:32;;;;;;;68.23;25.50;;;2.10;99.90;;;;;;5047460;28;20656;-65
2022/01/16 05:47:02;;;;;;;71.93;25.63;;;2.10;99.90;;;;;;5047432;28;20283;-66
2022/01/16 05:49:31;;;;;;;63.47;24.90;;;2.10;99.90;;;;;;5044085;28;20560;-66
2022/01/16 05:51:59;;;;;;;70.77;26.60;;;2.20;99.90;;;;;;5046378;28;20722;-66
2022/01/16 05:54:28;;;;;;;69.07;25.97;;;2.20;99.90;;;;;;5048156;28;20602;-66
2022/01/16 05:56:58;;;;;;;81.00;27.00;;;2.20;99.90;;;;;;5047139;28;20652;-66
2022/01/16 05:59:26;;;;;;;80.87;28.17;;;2.20;99.90;;;;;;5040066;28;20900;-67
2022/01/16 06:01:55;;;;;;;72.53;24.90;;;2.20;99.90;;;;;;5042486;28;20719;-66
2022/01/16 06:05:01;;;;;;;69.90;26.63;;;2.30;99.90;;;;;;5046893;28;20246;-66
2022/01/16 06:08:09;;;;;;;83.43;29.37;;;2.30;99.90;;;;;;5039051;28;20325;-66
2022/01/16 06:10:38;;;;;;;79.70;28.30;;;2.40;99.90;;;;;;5047134;28;20196;-66
2022/01/16 06:13:09;;;;;;;81.80;28.13;;;2.50;99.90;;;;;;5046418;28;20239;-66
2022/01/16 06:15:40;;;;;;;76.27;27.20;;;2.50;99.90;;;;;;5047466;28;20239;-66
2022/01/16 06:18:08;;;;;;;79.50;28.77;;;2.50;99.90;;;;;;5044933;28;20656;-66
2022/01/16 06:20:37;;;;;;;80.77;27.60;;;2.50;99.90;;;;;;5042178;28;20220;-66
2022/01/16 06:23:05;;;;;;;81.17;27.47;;;2.60;99.90;;;;;;5042298;28;20311;-66
2022/01/16 06:25:34;;;;;;;83.83;27.77;;;2.70;99.90;;;;;;5045954;28;20255;-66
2022/01/16 06:28:02;;;;;;;77.23;28.13;;;2.70;99.90;;;;;;5048017;28;20207;-66
2022/01/16 06:30:33;;;;;;;75.03;27.13;;;2.70;99.90;;;;;;5047407;28;20644;-66
2022/01/16 06:33:05;;;;;;;74.20;27.40;;;2.80;99.90;;;;;;5045913;28;20276;-66
2022/01/16 06:35:33;;;;;;;75.47;27.60;;;2.80;99.90;;;;;;5045700;28;20243;-65
2022/01/16 06:38:02;;;;;;;75.73;27.20;;;2.90;99.90;;;;;;5047644;28;20248;-66
2022/01/16 06:40:31;;;;;;;76.47;27.10;;;2.80;99.90;;;;;;5045740;28;20244;-66
2022/01/16 06:42:59;;;;;;;74.13;26.27;;;2.80;99.90;;;;;;5044817;28;20197;-66
2022/01/16 06:45:28;;;;;;;68.97;27.40;;;2.70;99.90;;;;;;5045273;28;20185;-66
2022/01/16 06:47:58;;;;;;;65.27;26.43;;;2.70;99.90;;;;;;5050430;28;20659;-66
2022/01/16 06:50:27;;;;;;;68.23;27.33;;;2.60;99.90;;;;;;5047320;28;20223;-66
2022/01/16 06:52:55;;;;;;;69.53;27.00;;;2.60;99.90;;;;;;5047747;28;20199;-66
2022/01/16 06:55:24;;;;;;;63.33;26.67;;;2.60;99.90;;;;;;5045925;28;20189;-66
2022/01/16 06:57:52;;;;;;;65.80;26.00;;;2.60;99.90;;;;;;5049424;28;20710;-66
2022/01/16 07:00:20;;;;;;;60.30;25.43;;;2.60;99.90;;;;;;5046348;28;20278;-66
2022/01/16 07:02:49;;;;;;;96.87;46.10;;;2.70;99.90;;;;;;5044350;28;20221;-66
2022/01/16 07:05:19;;;;;;;75.87;38.57;;;2.70;99.90;;;;;;5046686;28;20231;-66
2022/01/16 07:07:47;;;;;;;75.30;32.37;;;2.60;99.90;;;;;;5047392;28;20283;-66
2022/01/16 07:10:16;;;;;;;65.80;31.87;;;2.70;99.90;;;;;;5050559;28;20755;-66
2022/01/16 07:12:45;;;;;;;68.50;31.63;;;2.70;99.90;;;;;;5044515;28;20193;-66
2022/01/16 07:15:13;;;;;;;64.97;27.23;;;2.70;99.90;;;;;;5047331;28;20200;-66
2022/01/16 07:17:42;;;;;;;68.47;28.20;;;2.70;99.90;;;;;;5049888;28;20197;-66
2022/01/16 07:20:14;;;;;;;66.43;26.67;;;2.60;99.90;;;;;;5047346;28;20215;-66
2022/01/16 07:22:44;;;;;;;58.77;25.47;;;2.70;99.90;;;;;;5046166;28;20259;-66
2022/01/16 07:25:14;;;;;;;67.50;27.87;;;2.70;99.90;;;;;;5046895;28;20262;-66
2022/01/16 07:27:42;;;;;;;66.73;27.70;;;2.60;99.90;;;;;;5049981;28;20227;-66
2022/01/16 07:30:11;;;;;;;65.00;28.43;;;2.70;99.90;;;;;;5048427;28;20711;-66
2022/01/16 07:32:40;;;;;;;74.80;29.17;;;2.60;99.90;;;;;;5048930;28;20232;-66
2022/01/16 07:35:09;;;;;;;69.43;29.40;;;2.60;99.90;;;;;;5045138;28;20579;-66
2022/01/16 07:38:00;;;;;;;76.03;30.13;;;2.60;99.90;;;;;;5029228;28;20200;-66
2022/01/16 07:40:33;;;;;;;69.97;28.53;;;2.60;99.90;;;;;;5051239;28;20205;-65
2022/01/16 07:43:01;;;;;;;67.30;28.33;;;2.60;99.90;;;;;;5044749;28;20216;-66
2022/01/16 07:45:30;;;;;;;61.97;27.30;;;2.50;99.90;;;;;;5042837;28;20233;-66
2022/01/16 07:47:58;;;;;;;65.87;28.27;;;2.50;99.90;;;;;;5050767;28;20232;-66
2022/01/16 07:50:30;;;;;;;65.57;27.10;;;2.60;99.90;;;;;;5048867;28;20205;-66
2022/01/16 07:52:59;;;;;;;65.00;27.37;;;2.50;99.90;;;;;;5045184;28;21300;-66
2022/01/16 07:55:28;;;;;;;59.10;25.27;;;2.50;99.90;;;;;;5046087;28;20220;-66
2022/01/16 07:57:58;;;;;;;56.43;24.10;;;2.50;99.90;;;;;;5046220;28;20648;-66
2022/01/16 08:00:33;;;;;;;58.10;24.30;;;2.50;99.90;;;;;;5045836;28;20303;-66
2022/01/16 08:03:02;;;;;;;58.90;24.37;;;2.40;99.90;;;;;;5047928;28;20718;-66
2022/01/16 08:05:32;;;;;;;57.23;24.20;;;2.40;99.90;;;;;;5045024;28;20203;-66
2022/01/16 08:08:01;;;;;;;50.53;24.30;;;2.40;99.90;;;;;;5051786;28;20202;-66
2022/01/16 08:10:30;;;;;;;57.53;26.00;;;2.40;99.90;;;;;;5046995;28;20275;-66
2022/01/16 08:12:59;;;;;;;49.60;22.63;;;2.40;99.90;;;;;;5031741;28;20204;-66
2022/01/16 08:15:28;;;;;;;63.17;28.73;;;2.40;99.90;;;;;;5044735;28;20196;-66
2022/01/16 08:17:56;;;;;;;126.63;64.73;;;2.40;99.90;;;;;;5041438;28;20921;-66
2022/01/16 08:20:25;;;;;;;60.03;26.77;;;2.40;99.90;;;;;;5047345;28;20209;-66
2022/01/16 08:22:54;;;;;;;86.90;44.67;;;2.40;99.90;;;;;;5046142;28;20236;-66
2022/01/16 08:25:25;;;;;;;54.87;22.80;;;2.40;99.90;;;;;;5042856;28;20220;-66
2022/01/16 08:27:53;;;;;;;58.13;26.93;;;2.50;99.90;;;;;;5046974;28;20423;-66
2022/01/16 08:30:22;;;;;;;66.13;32.13;;;2.40;99.90;;;;;;5048240;28;20240;-66
2022/01/16 08:32:52;;;;;;;70.43;34.30;;;2.40;99.90;;;;;;5049390;28;20220;-66
2022/01/16 08:35:21;;;;;;;69.77;34.97;;;2.40;99.90;;;;;;5048184;28;20193;-66
2022/01/16 08:37:49;;;;;;;59.60;31.13;;;2.40;99.90;;;;;;5046554;28;20216;-66
2022/01/16 08:40:18;;;;;;;77.00;38.47;;;2.50;99.90;;;;;;5043510;28;20216;-66
2022/01/16 08:42:48;;;;;;;64.90;32.27;;;2.40;99.90;;;;;;5044694;28;20295;-66
2022/01/16 08:45:17;;;;;;;52.47;24.20;;;2.40;99.90;;;;;;5042817;28;20236;-66
2022/01/16 08:47:46;;;;;;;49.03;21.73;;;2.50;99.90;;;;;;5049302;28;20247;-66
2022/01/16 08:50:16;;;;;;;54.30;23.27;;;2.50;99.90;;;;;;5043910;28;20224;-66
2022/01/16 08:52:44;;;;;;;57.10;24.77;;;2.50;99.90;;;;;;5046378;28;20232;-66
2022/01/16 08:55:13;;;;;;;56.87;24.40;;;2.40;99.90;;;;;;5044679;28;20704;-66
2022/01/16 08:57:41;;;;;;;58.27;26.67;;;2.40;99.90;;;;;;5044505;28;20250;-66
2022/01/16 09:00:12;;;;;;;64.27;26.27;;;2.40;99.90;;;;;;5043139;28;20299;-66
2022/01/16 09:02:41;;;;;;;54.63;25.40;;;2.40;99.90;;;;;;5045339;28;20200;-66
2022/01/16 09:05:11;;;;;;;55.60;24.70;;;2.40;99.90;;;;;;5045807;28;20269;-66
2022/01/16 09:07:39;;;;;;;55.10;23.67;;;2.40;99.90;;;;;;5041142;28;20201;-66
2022/01/16 09:10:08;;;;;;;48.63;23.07;;;2.50;99.90;;;;;;5046240;28;20292;-66
2022/01/16 09:12:37;;;;;;;55.63;25.40;;;2.50;99.90;;;;;;5046056;28;20216;-66
2022/01/16 09:15:09;;;;;;;54.07;25.37;;;2.50;99.90;;;;;;5048881;28;20219;-65
2022/01/16 09:17:39;;;;;;;54.57;24.27;;;2.50;99.90;;;;;;5046576;28;20201;-66
2022/01/16 09:20:10;;;;;;;57.83;26.63;;;2.60;99.90;;;;;;5026488;28;20212;-66
2022/01/16 09:22:39;;;;;;;52.43;23.33;;;2.60;99.90;;;;;;5043222;28;20280;-66
2022/01/16 09:25:10;;;;;;;47.77;22.57;;;2.60;99.90;;;;;;5044419;28;20235;-66
2022/01/16 09:27:38;;;;;;;49.97;23.57;;;2.60;99.90;;;;;;5041501;28;20258;-65
2022/01/16 09:30:09;;;;;;;45.67;22.23;;;2.70;99.90;;;;;;5043305;28;20223;-65
2022/01/16 09:32:39;;;;;;;47.73;23.47;;;2.70;99.90;;;;;;5044839;28;20716;-66
2022/01/16 09:35:10;;;;;;;53.33;24.80;;;2.70;99.90;;;;;;5042318;28;20204;-66
2022/01/16 09:37:39;;;;;;;50.63;24.60;;;2.70;99.90;;;;;;5040406;28;20279;-66
2022/01/16 09:40:08;;;;;;;54.00;24.50;;;2.80;99.90;;;;;;5044810;28;20239;-66
2022/01/16 09:42:37;;;;;;;63.27;28.03;;;2.70;99.90;;;;;;5044451;28;20223;-66
2022/01/16 09:45:08;;;;;;;54.57;25.30;;;2.80;99.90;;;;;;5035879;28;20225;-65
2022/01/16 09:47:43;;;;;;;56.07;26.70;;;2.80;99.90;;;;;;5038699;28;20211;-65
2022/01/16 09:50:15;;;;;;;51.93;25.43;;;2.80;99.90;;;;;;5035983;28;20194;-66
2022/01/16 09:52:45;;;;;;;57.97;28.00;;;2.80;99.90;;;;;;5042780;28;20228;-66
2022/01/16 09:55:15;;;;;;;58.57;26.27;;;2.80;99.90;;;;;;5044077;28;20442;-66
2022/01/16 09:57:44;;;;;;;52.83;25.57;;;2.80;99.90;;;;;;5037637;28;20236;-65
2022/01/16 10:00:15;;;;;;;50.90;26.00;;;2.80;99.90;;;;;;5035923;28;20254;-65
2022/01/16 10:02:45;;;;;;;50.13;25.67;;;2.80;99.90;;;;;;5042622;28;20292;-66
2022/01/16 10:05:29;;;;;;;47.70;24.60;;;2.80;99.90;;;;;;5046246;28;20200;-66
2022/01/16 10:07:59;;;;;;;45.33;24.00;;;2.80;99.90;;;;;;5043283;28;20194;-66
2022/01/16 10:10:29;;;;;;;49.93;24.83;;;2.80;99.90;;;;;;5050159;28;20216;-66
2022/01/16 10:13:06;;;;;;;42.00;23.20;;;2.80;99.90;;;;;;5050649;28;20201;-66
2022/01/16 10:15:35;;;;;;;40.23;24.60;;;2.80;99.90;;;;;;5044667;28;20205;-65
2022/01/16 10:18:08;;;;;;;37.00;22.33;;;2.80;99.90;;;;;;5050462;28;20274;-66
2022/01/16 10:20:46;;;;;;;36.67;22.43;;;2.80;99.90;;;;;;5044796;28;20256;-66
2022/01/16 10:23:21;;;;;;;35.67;22.13;;;2.80;99.90;;;;;;5049197;28;20855;-66
2022/01/16 10:25:50;;;;;;;37.10;22.60;;;2.80;99.90;;;;;;5051527;28;20239;-66
2022/01/16 10:28:21;;;;;;;43.07;24.97;;;2.80;99.90;;;;;;5034729;28;20197;-66
2022/01/16 10:30:51;;;;;;;37.57;22.53;;;2.70;99.90;;;;;;5033645;28;20281;-66
2022/01/16 10:33:22;;;;;;;43.40;25.87;;;2.80;99.90;;;;;;5044610;28;20217;-66
2022/01/16 10:35:53;;;;;;;49.07;25.03;;;2.80;99.90;;;;;;5057327;28;20208;-66
2022/01/16 10:38:24;;;;;;;41.23;23.90;;;2.80;99.90;;;;;;5053065;28;20197;-66
2022/01/16 10:40:53;;;;;;;37.03;21.73;;;2.90;99.90;;;;;;5048913;28;20652;-66
2022/01/16 10:43:39;;;;;;;35.90;21.83;;;3.00;99.90;;;;;;5049948;28;20276;-66
2022/01/16 10:46:09;;;;;;;37.57;21.83;;;3.00;99.90;;;;;;5047092;28;20567;-65
2022/01/16 10:49:16;;;;;;;36.70;23.23;;;3.20;99.90;;;;;;5048975;28;20212;-64
2022/01/16 10:52:02;;;;;;;36.73;21.13;;;3.10;99.90;;;;;;5041288;28;20280;-66
2022/01/16 10:54:33;;;;;;;34.93;21.63;;;3.20;99.90;;;;;;5026979;28;20272;-66
2022/01/16 10:57:20;;;;;;;36.70;22.67;;;3.20;99.90;;;;;;5048986;28;20870;-66
2022/01/16 10:59:48;;;;;;;39.20;21.90;;;3.10;99.90;;;;;;5047388;28;20204;-66
2022/01/16 11:02:18;;;;;;;42.63;25.03;;;3.10;99.90;;;;;;5047396;28;20231;-66
2022/01/16 11:04:48;;;;;;;41.83;23.93;;;3.10;99.90;;;;;;5051649;28;20189;-66
2022/01/16 11:07:16;;;;;;;43.10;25.83;;;3.20;99.90;;;;;;5041580;28;20205;-66
2022/01/16 11:09:45;;;;;;;37.50;23.10;;;3.30;99.90;;;;;;5049557;28;20272;-66
2022/01/16 11:12:13;;;;;;;38.03;22.57;;;3.30;99.90;;;;;;5051481;28;20280;-66
2022/01/16 11:14:41;;;;;;;40.30;22.83;;;3.30;99.90;;;;;;5048844;28;20224;-67
2022/01/16 11:17:10;;;;;;;40.87;25.37;;;3.40;99.90;;;;;;5038966;28;20284;-66
2022/01/16 11:19:39;;;;;;;39.90;24.20;;;3.40;99.90;;;;;;5045060;28;20193;-65
2022/01/16 11:22:11;;;;;;;38.10;23.40;;;3.50;99.90;;;;;;5043274;28;20221;-66
2022/01/16 11:24:47;;;;;;;39.83;24.07;;;3.60;99.90;;;;;;5043371;28;20209;-66
2022/01/16 11:27:17;;;;;;;39.20;23.10;;;3.60;99.90;;;;;;5048501;28;20201;-66
2022/01/16 11:29:46;;;;;;;39.70;23.93;;;3.50;99.90;;;;;;5035459;28;20201;-66
2022/01/16 11:32:14;;;;;;;39.57;23.53;;;3.50;99.90;;;;;;5041404;28;20228;-66
2022/01/16 11:34:43;;;;;;;39.13;22.20;;;3.50;99.90;;;;;;5042170;28;20228;-66
2022/01/16 11:37:14;;;;;;;34.27;20.50;;;3.50;99.90;;;;;;5046517;28;20196;-66
2022/01/16 11:39:42;;;;;;;34.20;20.47;;;3.50;99.90;;;;;;5048542;28;20722;-66
2022/01/16 11:42:20;;;;;;;35.37;21.17;;;3.50;99.90;;;;;;5037951;28;20293;-66
2022/01/16 11:44:52;;;;;;;35.87;21.10;;;3.60;99.90;;;;;;5038906;28;20201;-66
2022/01/16 11:47:21;;;;;;;39.10;21.23;;;3.60;99.90;;;;;;5031234;28;20958;-66
2022/01/16 11:49:50;;;;;;;31.60;20.70;;;3.60;99.90;;;;;;5039012;28;20200;-66
2022/01/16 11:52:21;;;;;;;37.10;21.40;;;3.70;99.90;;;;;;5046573;28;20201;-66
2022/01/16 11:54:53;;;;;;;25.90;17.23;;;3.70;99.90;;;;;;5043189;28;20232;-67
2022/01/16 11:57:26;;;;;;;29.13;17.97;;;3.80;99.90;;;;;;5045694;28;20202;-66
2022/01/16 12:00:08;;;;;;;29.27;18.90;;;3.80;99.90;;;;;;5043641;28;20192;-66
2022/01/16 12:02:42;;;;;;;31.80;19.97;;;3.80;99.90;;;;;;5046738;28;20217;-66
2022/01/16 12:05:50;;;;;;;25.23;16.13;;;3.90;99.90;;;;;;5045947;28;20232;-66
2022/01/16 12:08:35;;;;;;;28.63;17.33;;;3.90;99.90;;;;;;5047710;28;20719;-66
2022/01/16 12:11:03;;;;;;;28.03;17.37;;;3.90;99.90;;;;;;5039622;28;20204;-66
2022/01/16 12:13:57;;;;;;;26.80;17.00;;;3.80;99.90;;;;;;5042392;28;20190;-65
2022/01/16 12:16:42;;;;;;;26.20;16.87;;;3.90;99.90;;;;;;5051873;28;20336;-66
2022/01/16 12:19:41;;;;;;;28.67;16.27;;;3.90;99.90;;;;;;5046220;28;20197;-66
2022/01/16 12:22:14;;;;;;;28.60;17.03;;;3.90;99.90;;;;;;5050000;28;20223;-67
2022/01/16 12:24:47;;;;;;;29.90;17.57;;;4.00;99.90;;;;;;5046229;28;20872;-66
2022/01/16 12:27:31;;;;;;;32.13;22.60;;;4.00;99.90;;;;;;5049357;28;20263;-67
2022/01/16 12:30:14;;;;;;;29.40;17.73;;;4.00;99.90;;;;;;5044408;28;20205;-66
2022/01/16 12:32:50;;;;;;;28.53;18.13;;;4.00;99.90;;;;;;5047550;28;20229;-67
2022/01/16 12:36:08;;;;;;;28.50;18.20;;;4.00;99.90;;;;;;5051654;28;20223;-66
2022/01/16 12:38:42;;;;;;;31.53;21.47;;;4.00;99.90;;;;;;5049690;28;20212;-66
2022/01/16 12:41:16;;;;;;;31.27;19.43;;;4.10;99.90;;;;;;5041459;28;20279;-66
2022/01/16 12:43:52;;;;;;;29.13;18.20;;;4.10;99.90;;;;;;5045988;28;20216;-66
2022/01/16 12:46:24;;;;;;;23.63;16.40;;;4.20;99.90;;;;;;5043846;28;20193;-66
2022/01/16 12:48:53;;;;;;;32.10;17.73;;;4.10;99.90;;;;;;5037183;28;20683;-66
2022/01/16 12:51:26;;;;;;;29.70;17.17;;;4.10;99.90;;;;;;5037573;28;20193;-66
2022/01/16 12:53:56;;;;;;;24.10;16.50;;;4.10;99.90;;;;;;5044767;28;20640;-66
2022/01/16 12:56:30;;;;;;;28.40;16.80;;;4.10;99.90;;;;;;5024097;28;20189;-66
2022/01/16 12:59:09;;;;;;;27.57;17.17;;;4.10;99.90;;;;;;5029818;28;20197;-66
2022/01/16 13:01:39;;;;;;;25.77;16.67;;;4.10;99.90;;;;;;5041296;28;20222;-66
2022/01/16 13:04:08;;;;;;;28.73;17.23;;;4.10;99.90;;;;;;5043070;28;20693;-66
2022/01/16 13:06:36;;;;;;;27.47;17.80;;;4.20;99.90;;;;;;5040049;28;20232;-66
2022/01/16 13:09:07;;;;;;;28.07;17.50;;;4.20;99.90;;;;;;5039681;28;20197;-66
2022/01/16 13:11:40;;;;;;;26.33;16.83;;;4.30;99.90;;;;;;5032663;28;20735;-66
2022/01/16 13:14:10;;;;;;;26.57;16.37;;;4.30;99.90;;;;;;5035330;28;20278;-66
2022/01/16 13:16:39;;;;;;;29.77;17.50;;;4.40;99.90;;;;;;5047539;28;20724;-66
2022/01/16 13:19:12;;;;;;;28.53;16.70;;;4.30;99.90;;;;;;5046491;28;20195;-67
2022/01/16 13:21:43;;;;;;;29.60;16.43;;;4.40;99.90;;;;;;5037491;28;20297;-66
2022/01/16 13:24:24;;;;;;;28.97;16.37;;;4.40;99.90;;;;;;5038617;28;20271;-66
2022/01/16 13:26:55;;;;;;;26.27;16.27;;;4.40;99.90;;;;;;5030876;28;20660;-66
2022/01/16 13:29:29;;;;;;;27.13;17.17;;;4.40;99.90;;;;;;5046993;28;20203;-67
2022/01/16 13:31:58;;;;;;;24.33;15.60;;;4.50;99.90;;;;;;5040909;28;20189;-66